createdAt,value
2019-04-26T00:01:17.031Z,101496.30
2019-04-26T00:03:47.737Z,101506.21
2019-04-26T00:06:18.608Z,101504.00
2019-04-26T00:08:53.132Z,101508.04
2019-04-26T00:11:35.059Z,101507.08
2019-04-26T00:14:30.685Z,101509.90
2019-04-26T00:17:11.483Z,101505.86
2019-04-26T00:19:41.288Z,101513.94
2019-04-26T00:22:10.985Z,101517.46
2019-04-26T00:24:41.681Z,101518.81
2019-04-26T00:27:11.431Z,101513.94
2019-04-26T00:29:41.009Z,101520.16
2019-04-26T00:32:11.900Z,101515.64
2019-04-26T00:34:42.009Z,101514.42
2019-04-26T00:37:11.756Z,101516.98
2019-04-26T00:39:42.242Z,101504.00
2019-04-26T00:42:13.148Z,101507.21
2019-04-26T00:44:43.687Z,101508.42
2019-04-26T00:47:15.178Z,101509.39
2019-04-26T00:49:45.027Z,101510.73
2019-04-26T00:52:15.794Z,101499.96
2019-04-26T00:54:46.405Z,101506.70
2019-04-26T00:57:18.323Z,101499.96
2019-04-26T00:59:50.078Z,101505.86
2019-04-26T01:02:26.556Z,101499.13
2019-04-26T01:04:56.066Z,101494.23
2019-04-26T01:07:25.640Z,101495.92
2019-04-26T01:09:55.151Z,101494.58
2019-04-26T01:12:24.803Z,101492.75
2019-04-26T01:14:54.279Z,101494.95
2019-04-26T01:17:24.597Z,101486.50
2019-04-26T01:19:55.867Z,101481.50
2019-04-26T01:22:28.345Z,101485.53
2019-04-26T01:25:00.549Z,101481.50
2019-04-26T01:27:31.844Z,101479.77
2019-04-26T01:30:04.873Z,101477.84
2019-04-26T01:32:37.020Z,101470.73
2019-04-26T01:35:06.970Z,101470.25
2019-04-26T01:37:38.272Z,101468.03
2019-04-26T01:40:12.682Z,101466.69
2019-04-26T01:43:08.432Z,101468.41
2019-04-26T01:45:45.320Z,101458.13
2019-04-26T01:48:39.282Z,101464.00
2019-04-26T01:51:11.087Z,101464.48
2019-04-26T01:53:41.724Z,101468.16
2019-04-26T01:56:11.518Z,101459.22
2019-04-26T01:58:41.444Z,101455.53
2019-04-26T02:01:35.967Z,101455.53
2019-04-26T02:04:06.990Z,101457.75
2019-04-26T02:06:36.703Z,101454.57
2019-04-26T02:09:09.580Z,101451.88
2019-04-26T02:11:39.832Z,101447.84
2019-04-26T02:14:09.640Z,101452.27
2019-04-26T02:16:39.364Z,101446.49
2019-04-26T02:19:08.878Z,101442.84
2019-04-26T02:21:44.828Z,101442.84
2019-04-26T02:24:34.354Z,101446.39
2019-04-26T02:27:07.442Z,101449.57
2019-04-26T02:29:36.978Z,101451.27
2019-04-26T02:32:08.340Z,101460.69
2019-04-26T02:34:38.804Z,101459.72
2019-04-26T02:37:11.144Z,101458.86
2019-04-26T02:39:42.049Z,101456.17
2019-04-26T02:42:42.774Z,101454.34
2019-04-26T02:45:58.513Z,101455.20
2019-04-26T02:49:08.320Z,101450.68
2019-04-26T02:51:41.443Z,101449.34
2019-04-26T02:54:27.845Z,101441.84
2019-04-26T02:57:02.630Z,101441.36
2019-04-26T02:59:44.384Z,101432.80
2019-04-26T03:02:23.859Z,101434.14
2019-04-26T03:04:57.788Z,101431.45
2019-04-26T03:07:58.619Z,101427.80
2019-04-26T03:10:36.240Z,101421.06
2019-04-26T03:13:10.057Z,101422.77
2019-04-26T03:16:03.390Z,101420.06
2019-04-26T03:19:01.146Z,101414.68
2019-04-26T03:21:39.395Z,101416.41
2019-04-26T03:24:21.102Z,101415.55
2019-04-26T03:27:28.582Z,101404.39
2019-04-26T03:30:19.427Z,101402.56
2019-04-26T03:33:06.427Z,101397.08
2019-04-26T03:36:03.220Z,101399.39
2019-04-26T03:38:48.672Z,101394.00
2019-04-26T03:42:10.333Z,101390.93
2019-04-26T03:45:33.001Z,101391.31
2019-04-26T03:48:16.266Z,101384.20
2019-04-26T03:50:56.018Z,101390.09
2019-04-26T03:53:32.105Z,101388.75
2019-04-26T03:56:31.911Z,101390.45
2019-04-26T03:59:36.214Z,101393.14
2019-04-26T04:02:27.310Z,101389.48
2019-04-26T04:05:17.269Z,101393.87
2019-04-26T04:07:51.373Z,101386.66
2019-04-26T04:10:24.191Z,101384.83
2019-04-26T04:13:44.429Z,101382.13
2019-04-26T04:16:18.009Z,101381.20
2019-04-26T04:18:54.009Z,101387.94
2019-04-26T04:21:39.270Z,101388.77
2019-04-26T04:24:17.016Z,101382.89
2019-04-26T04:27:21.047Z,101384.97
2019-04-26T04:30:11.975Z,101378.23
2019-04-26T04:33:09.565Z,101376.30
2019-04-26T04:35:49.211Z,101381.07
2019-04-26T04:38:42.037Z,101392.23
2019-04-26T04:41:24.480Z,101391.12
2019-04-26T04:44:26.041Z,101389.50
2019-04-26T04:47:30.897Z,101391.96
2019-04-26T04:50:18.347Z,101391.10
2019-04-26T04:53:00.347Z,101393.94
2019-04-26T04:55:45.207Z,101396.64
2019-04-26T04:58:20.884Z,101395.53
2019-04-26T05:01:52.546Z,101397.47
2019-04-26T05:05:24.364Z,101397.71
2019-04-26T05:08:25.033Z,101392.33
2019-04-26T05:11:09.207Z,101391.84
2019-04-26T05:13:55.807Z,101389.14
2019-04-26T05:16:50.985Z,101397.61
2019-04-26T05:19:57.014Z,101399.81
2019-04-26T05:23:02.043Z,101398.47
2019-04-26T05:26:30.214Z,101390.73
2019-04-26T05:29:40.195Z,101394.67
2019-04-26T05:32:24.802Z,101400.78
2019-04-26T05:35:39.088Z,101398.57
2019-04-26T05:38:24.811Z,101402.23
2019-04-26T05:41:22.405Z,101402.09
2019-04-26T05:44:18.609Z,101404.23
2019-04-26T05:47:26.598Z,101398.69
2019-04-26T05:50:51.878Z,101402.24
2019-04-26T05:53:59.289Z,101399.73
2019-04-26T05:56:43.927Z,101399.13
2019-04-26T05:59:29.340Z,101397.63
2019-04-26T06:02:20.682Z,101399.07
2019-04-26T06:05:29.277Z,101402.13
2019-04-26T06:08:15.976Z,101397.20
2019-04-26T06:10:56.481Z,101395.84
2019-04-26T06:14:15.975Z,101401.21
2019-04-26T06:17:19.347Z,101398.16
2019-04-26T06:20:21.975Z,101402.77
2019-04-26T06:23:13.627Z,101400.20
2019-04-26T06:25:58.330Z,101400.28
2019-04-26T06:28:42.940Z,101402.09
2019-04-26T06:31:33.723Z,101402.22
2019-04-26T06:34:32.455Z,101403.80
2019-04-26T06:37:38.647Z,101399.60
2019-04-26T06:40:41.668Z,101392.02
2019-04-26T06:43:32.409Z,101395.21
2019-04-26T06:46:47.586Z,101396.19
2019-04-26T06:50:22.825Z,101391.41
2019-04-26T06:53:11.707Z,101386.28
2019-04-26T06:55:54.406Z,101395.49
2019-04-26T06:59:03.637Z,101393.91
2019-04-26T07:01:40.680Z,101397.24
2019-04-26T07:04:19.533Z,101390.49
2019-04-26T07:07:34.995Z,101391.70
2019-04-26T07:10:30.309Z,101388.89
2019-04-26T07:13:38.588Z,101390.58
2019-04-26T07:16:34.025Z,101384.20
2019-04-26T07:19:21.088Z,101391.30
2019-04-26T07:22:35.118Z,101396.59
2019-04-26T07:25:47.725Z,101394.38
2019-04-26T07:28:47.811Z,101391.67
2019-04-26T07:31:32.964Z,101385.91
2019-04-26T07:34:52.281Z,101385.41
2019-04-26T07:37:40.406Z,101385.64
2019-04-26T07:41:03.089Z,101385.05
2019-04-26T07:44:17.816Z,101379.87
2019-04-26T07:47:15.667Z,101384.98
2019-04-26T07:50:28.337Z,101385.96
2019-04-26T07:53:44.106Z,101380.64
2019-04-26T07:56:38.174Z,101373.00
2019-04-26T07:59:56.269Z,101367.70
2019-04-26T08:02:52.448Z,101366.44
2019-04-26T08:05:46.191Z,101361.48
2019-04-26T08:08:19.388Z,101358.52
2019-04-26T08:11:04.612Z,101353.34
2019-04-26T08:13:37.239Z,101359.46
2019-04-26T08:16:34.712Z,101356.87
2019-04-26T08:19:08.525Z,101356.27
2019-04-26T08:21:47.824Z,101352.92
2019-04-26T08:24:28.128Z,101348.75
2019-04-26T08:27:23.681Z,101348.11
2019-04-26T08:30:10.482Z,101348.83
2019-04-26T08:32:43.185Z,101353.38
2019-04-26T08:35:29.636Z,101347.97
2019-04-26T08:38:08.292Z,101347.74
2019-04-26T08:40:38.074Z,101350.11
2019-04-26T08:43:30.547Z,101356.98
2019-04-26T08:46:23.739Z,101350.48
2019-04-26T08:49:11.141Z,101356.01
2019-04-26T08:51:42.930Z,101355.07
2019-04-26T08:54:20.468Z,101354.33
2019-04-26T08:56:54.261Z,101352.63
2019-04-26T08:59:27.499Z,101346.14
2019-04-26T09:02:26.399Z,101346.30
2019-04-26T09:05:19.000Z,101346.89
2019-04-26T09:07:53.422Z,101342.13
2019-04-26T09:10:24.829Z,101341.05
2019-04-26T09:12:56.848Z,101339.84
2019-04-26T09:16:11.590Z,101335.56
2019-04-26T09:18:44.138Z,101334.85
2019-04-26T09:21:17.087Z,101330.20
2019-04-26T09:24:02.215Z,101334.89
2019-04-26T09:26:37.783Z,101335.37
2019-04-26T09:29:30.406Z,101338.34
2019-04-26T09:32:04.135Z,101332.94
2019-04-26T09:34:33.721Z,101328.52
2019-04-26T09:37:03.285Z,101331.84
2019-04-26T09:39:32.799Z,101328.80
2019-04-26T09:42:09.800Z,101328.80
2019-04-26T09:44:47.794Z,101326.45
2019-04-26T09:47:36.247Z,101323.41
2019-04-26T09:50:20.737Z,101319.84
2019-04-26T09:52:51.555Z,101318.98
2019-04-26T09:55:21.071Z,101317.78
2019-04-26T09:57:53.512Z,101315.57
2019-04-26T10:00:28.615Z,101317.41
2019-04-26T10:02:58.134Z,101318.91
2019-04-26T10:05:27.722Z,101310.55
2019-04-26T10:07:57.279Z,101308.48
2019-04-26T10:10:31.034Z,101305.92
2019-04-26T10:13:22.156Z,101304.35
2019-04-26T10:16:10.615Z,101299.92
2019-04-26T10:18:42.032Z,101305.73
2019-04-26T10:21:11.506Z,101301.69
2019-04-26T10:23:41.440Z,101295.57
2019-04-26T10:26:11.093Z,101302.31
2019-04-26T10:28:40.618Z,101300.22
2019-04-26T10:31:13.457Z,101296.80
2019-04-26T10:33:41.408Z,101292.05
2019-04-26T10:36:10.915Z,101292.98
2019-04-26T10:38:40.457Z,101284.66
2019-04-26T10:41:13.869Z,101282.97
2019-04-26T10:43:43.966Z,101285.67
2019-04-26T10:46:14.031Z,101292.53
2019-04-26T10:48:45.469Z,101276.48
2019-04-26T10:51:17.433Z,101280.16
2019-04-26T10:54:01.718Z,101272.20
2019-04-26T10:56:58.166Z,101273.18
2019-04-26T10:59:52.774Z,101272.84
2019-04-26T11:02:22.450Z,101271.27
2019-04-26T11:04:52.257Z,101263.28
2019-04-26T11:07:22.252Z,101260.24
2019-04-26T11:09:51.826Z,101261.22
2019-04-26T11:12:21.426Z,101259.15
2019-04-26T11:14:53.260Z,101260.13
2019-04-26T11:17:22.764Z,101247.64
2019-04-26T11:19:52.298Z,101253.16
2019-04-26T11:22:28.946Z,101253.30
2019-04-26T11:24:54.932Z,101248.88
2019-04-26T11:27:24.617Z,101250.71
2019-04-26T11:29:54.340Z,101253.55
2019-04-26T11:32:23.904Z,101251.83
2019-04-26T11:34:54.596Z,101247.93
2019-04-26T11:37:24.677Z,101244.38
2019-04-26T11:39:54.243Z,101244.00
2019-04-26T11:42:26.065Z,101246.35
2019-04-26T11:45:05.580Z,101246.46
2019-04-26T11:47:26.760Z,101238.52
2019-04-26T11:49:56.407Z,101240.01
2019-04-26T11:52:25.958Z,101246.75
2019-04-26T11:54:56.238Z,101238.28
2019-04-26T11:57:25.867Z,101234.88
2019-04-26T11:59:55.383Z,101234.88
2019-04-26T12:02:26.510Z,101231.31
2019-04-26T12:05:18.971Z,101230.94
2019-04-26T12:07:55.560Z,101232.44
2019-04-26T12:10:27.139Z,101211.49
2019-04-26T12:13:05.636Z,101209.77
2019-04-26T12:15:30.512Z,101214.78
2019-04-26T12:17:59.579Z,101211.27
2019-04-26T12:20:29.181Z,101206.84
2019-04-26T12:22:58.725Z,101210.52
2019-04-26T12:25:30.994Z,101210.17
2019-04-26T12:28:01.921Z,101202.94
2019-04-26T12:30:30.874Z,101200.36
2019-04-26T12:33:00.403Z,101199.16
2019-04-26T12:35:30.172Z,101200.98
2019-04-26T12:37:59.757Z,101198.78
2019-04-26T12:40:29.318Z,101196.57
2019-04-26T12:42:58.854Z,101197.05
2019-04-26T12:45:47.375Z,101190.45
2019-04-26T12:48:19.105Z,101188.73
2019-04-26T12:50:48.656Z,101187.05
2019-04-26T12:53:18.292Z,101183.98
2019-04-26T12:55:49.157Z,101190.86
2019-04-26T12:58:19.105Z,101186.81
2019-04-26T13:00:54.330Z,101190.86
2019-04-26T13:03:20.873Z,101189.63
2019-04-26T13:05:57.767Z,101186.92
2019-04-26T13:08:21.844Z,101189.77
2019-04-26T13:11:19.201Z,101179.13
2019-04-26T13:13:59.491Z,101185.01
2019-04-26T13:16:42.226Z,101178.34
2019-04-26T13:19:11.769Z,101177.14
2019-04-26T13:21:41.266Z,101183.02
2019-04-26T13:24:10.780Z,101182.16
2019-04-26T13:26:40.329Z,101180.47
2019-04-26T13:29:09.878Z,101180.95
2019-04-26T13:31:39.386Z,101180.58
2019-04-26T13:34:09.005Z,101195.41
2019-04-26T13:36:38.491Z,101182.08
2019-04-26T13:39:13.542Z,101195.06
2019-04-26T13:41:43.272Z,101196.90
2019-04-26T13:44:12.785Z,101189.78
2019-04-26T13:47:07.996Z,101190.90
2019-04-26T13:49:43.708Z,101185.88
2019-04-26T13:52:13.355Z,101188.20
2019-04-26T13:54:42.821Z,101192.39
2019-04-26T13:57:12.425Z,101187.00
2019-04-26T13:59:42.016Z,101192.87
2019-04-26T14:02:12.214Z,101192.50
2019-04-26T14:04:42.653Z,101186.28
2019-04-26T14:07:12.371Z,101187.11
2019-04-26T14:09:41.929Z,101180.03
2019-04-26T14:12:18.677Z,101181.00
2019-04-26T14:14:42.870Z,101176.09
2019-04-26T14:17:12.444Z,101177.45
2019-04-26T14:19:45.360Z,101169.02
2019-04-26T14:22:15.102Z,101177.59
2019-04-26T14:24:56.913Z,101178.08
2019-04-26T14:27:31.905Z,101171.82
2019-04-26T14:30:02.558Z,101173.31
2019-04-26T14:32:32.725Z,101167.92
2019-04-26T14:35:02.382Z,101166.83
2019-04-26T14:37:31.996Z,101176.98
2019-04-26T14:40:15.994Z,101168.03
2019-04-26T14:42:41.954Z,101174.77
2019-04-26T14:45:06.049Z,101171.73
2019-04-26T14:47:46.720Z,101171.25
2019-04-26T14:50:14.257Z,101178.95
2019-04-26T14:52:39.340Z,101170.01
2019-04-26T14:55:09.074Z,101176.74
2019-04-26T14:57:38.784Z,101173.33
2019-04-26T15:00:10.108Z,101170.16
2019-04-26T15:02:55.804Z,101166.11
2019-04-26T15:05:29.526Z,101167.94
2019-04-26T15:07:59.697Z,101170.27
2019-04-26T15:10:43.916Z,101162.32
2019-04-26T15:13:17.428Z,101167.71
2019-04-26T15:15:38.990Z,101162.47
2019-04-26T15:18:08.570Z,101155.35
2019-04-26T15:20:38.116Z,101162.47
2019-04-26T15:23:07.664Z,101163.92
2019-04-26T15:25:37.255Z,101157.19
2019-04-26T15:28:11.162Z,101159.02
2019-04-26T15:30:45.993Z,101153.77
2019-04-26T15:33:12.659Z,101152.91
2019-04-26T15:35:42.160Z,101151.56
2019-04-26T15:38:11.935Z,101148.49
2019-04-26T15:41:04.486Z,101144.45
2019-04-26T15:43:42.848Z,101144.59
2019-04-26T15:46:37.441Z,101146.91
2019-04-26T15:49:26.134Z,101149.75
2019-04-26T15:51:56.408Z,101144.36
2019-04-26T15:54:27.440Z,101144.50
2019-04-26T15:56:57.248Z,101138.36
2019-04-26T15:59:26.854Z,101131.77
2019-04-26T16:01:56.545Z,101134.09
2019-04-26T16:04:26.275Z,101130.80
2019-04-26T16:06:55.886Z,101129.08
2019-04-26T16:09:27.812Z,101126.53
2019-04-26T16:11:57.469Z,101122.11
2019-04-26T16:14:31.281Z,101126.16
2019-04-26T16:17:02.506Z,101127.98
2019-04-26T16:19:29.682Z,101127.64
2019-04-26T16:21:59.251Z,101127.64
2019-04-26T16:24:29.230Z,101125.92
2019-04-26T16:26:59.075Z,101124.69
2019-04-26T16:29:58.411Z,101123.85
2019-04-26T16:32:58.641Z,101122.99
2019-04-26T16:35:28.332Z,101123.10
2019-04-26T16:38:00.225Z,101117.71
2019-04-26T16:40:29.821Z,101118.72
2019-04-26T16:42:59.868Z,101112.47
2019-04-26T16:45:29.431Z,101111.13
2019-04-26T16:47:59.105Z,101111.61
2019-04-26T16:50:31.631Z,101114.78
2019-04-26T16:52:59.933Z,101115.79
2019-04-26T16:55:29.417Z,101109.55
2019-04-26T16:57:59.087Z,101109.05
2019-04-26T17:00:48.171Z,101108.68
2019-04-26T17:03:03.897Z,101114.20
2019-04-26T17:05:45.508Z,101115.07
2019-04-26T17:08:05.069Z,101114.20
2019-04-26T17:10:34.386Z,101112.97
2019-04-26T17:13:04.219Z,101112.63
2019-04-26T17:15:34.531Z,101113.11
2019-04-26T17:18:04.375Z,101120.81
2019-04-26T17:20:34.111Z,101114.71
2019-04-26T17:23:15.030Z,101114.71
2019-04-26T17:26:09.805Z,101112.50
2019-04-26T17:28:39.850Z,101116.69
2019-04-26T17:31:09.856Z,101113.62
2019-04-26T17:33:39.492Z,101115.96
2019-04-26T17:36:11.441Z,101120.34
2019-04-26T17:38:45.868Z,101116.30
2019-04-26T17:41:15.444Z,101119.38
2019-04-26T17:43:47.488Z,101124.77
2019-04-26T17:46:18.347Z,101120.34
2019-04-26T17:48:49.439Z,101119.48
2019-04-26T17:51:22.701Z,101117.66
2019-04-26T17:54:12.883Z,101116.30
2019-04-26T17:56:26.125Z,101124.87
2019-04-26T17:58:55.115Z,101117.80
2019-04-26T18:01:42.000Z,101118.25
2019-04-26T18:03:56.390Z,101116.91
2019-04-26T18:06:29.841Z,101110.80
2019-04-26T18:08:57.318Z,101103.69
2019-04-26T18:11:26.860Z,101102.83
2019-04-26T18:13:56.642Z,101101.13
2019-04-26T18:16:29.510Z,101096.72
2019-04-26T18:19:12.788Z,101100.42
2019-04-26T18:22:01.357Z,101101.87
2019-04-26T18:24:32.266Z,101097.11
2019-04-26T18:27:03.550Z,101097.36
2019-04-26T18:29:33.947Z,101091.25
2019-04-26T18:32:04.648Z,101098.95
2019-04-26T18:34:40.107Z,101100.44
2019-04-26T18:37:07.462Z,101099.20
2019-04-26T18:39:37.219Z,101099.83
2019-04-26T18:42:06.879Z,101110.25
2019-04-26T18:44:39.405Z,101116.59
2019-04-26T18:47:28.312Z,101113.19
2019-04-26T18:49:59.265Z,101112.33
2019-04-26T18:52:30.528Z,101121.50
2019-04-26T18:55:21.570Z,101119.44
2019-04-26T18:57:55.195Z,101118.20
2019-04-26T19:00:48.240Z,101122.86
2019-04-26T19:03:18.972Z,101122.62
2019-04-26T19:05:48.487Z,101126.80
2019-04-26T19:08:20.833Z,101129.59
2019-04-26T19:10:59.204Z,101127.87
2019-04-26T19:13:48.810Z,101132.91
2019-04-26T19:16:26.949Z,101136.94
2019-04-26T19:19:25.356Z,101136.56
2019-04-26T19:22:03.212Z,101133.63
2019-04-26T19:24:32.504Z,101126.66
2019-04-26T19:27:04.122Z,101133.53
2019-04-26T19:29:35.632Z,101135.73
2019-04-26T19:32:04.845Z,101131.32
2019-04-26T19:34:34.374Z,101133.15
2019-04-26T19:37:04.375Z,101127.91
2019-04-26T19:39:35.765Z,101129.73
2019-04-26T19:42:06.255Z,101127.53
2019-04-26T19:44:36.097Z,101124.48
2019-04-26T19:47:18.839Z,101127.18
2019-04-26T19:50:09.481Z,101129.98
2019-04-26T19:52:45.039Z,101137.19
2019-04-26T19:55:36.640Z,101129.25
2019-04-26T19:58:16.657Z,101126.19
2019-04-26T20:00:46.717Z,101125.94
2019-04-26T20:03:16.756Z,101129.11
2019-04-26T20:05:46.226Z,101127.05
2019-04-26T20:08:15.751Z,101131.22
2019-04-26T20:10:45.935Z,101129.01
2019-04-26T20:13:16.771Z,101134.52
2019-04-26T20:15:46.348Z,101132.31
2019-04-26T20:18:17.491Z,101126.08
2019-04-26T20:20:47.386Z,101126.70
2019-04-26T20:23:19.332Z,101122.28
2019-04-26T20:25:48.617Z,101124.97
2019-04-26T20:28:18.173Z,101124.11
2019-04-26T20:31:15.822Z,101120.66
2019-04-26T20:33:47.669Z,101117.11
2019-04-26T20:36:16.724Z,101113.55
2019-04-26T20:38:47.525Z,101108.31
2019-04-26T20:41:17.325Z,101107.94
2019-04-26T20:44:02.461Z,101108.93
2019-04-26T20:46:18.221Z,101107.21
2019-04-26T20:48:47.805Z,101108.55
2019-04-26T20:51:18.291Z,101100.14
2019-04-26T20:53:48.169Z,101104.66
2019-04-26T20:56:18.773Z,101104.76
2019-04-26T20:58:48.460Z,101105.27
2019-04-26T21:01:18.036Z,101106.11
2019-04-26T21:03:47.615Z,101109.79
2019-04-26T21:06:17.207Z,101100.00
2019-04-26T21:08:46.748Z,101106.72
2019-04-26T21:11:16.316Z,101102.69
2019-04-26T21:13:45.878Z,101098.31
2019-04-26T21:16:15.739Z,101101.96
2019-04-26T21:18:45.333Z,101109.06
2019-04-26T21:21:16.176Z,101106.48
2019-04-26T21:23:48.179Z,101098.41
2019-04-26T21:26:39.859Z,101100.72
2019-04-26T21:29:27.185Z,101100.38
2019-04-26T21:32:16.383Z,101098.66
2019-04-26T21:34:50.812Z,101100.48
2019-04-26T21:37:43.147Z,101096.95
2019-04-26T21:40:38.248Z,101090.82
2019-04-26T21:43:07.954Z,101091.34
2019-04-26T21:45:37.455Z,101092.68
2019-04-26T21:48:08.051Z,101092.68
2019-04-26T21:50:39.049Z,101091.34
2019-04-26T21:53:08.758Z,101091.34
2019-04-26T21:55:38.928Z,101076.17
2019-04-26T21:58:08.687Z,101081.55
2019-04-26T22:00:57.215Z,101081.06
2019-04-26T22:03:27.577Z,101078.86
2019-04-26T22:05:57.077Z,101073.48
2019-04-26T22:08:30.144Z,101074.83
2019-04-26T22:10:59.779Z,101066.38
2019-04-26T22:13:45.079Z,101065.90
2019-04-26T22:16:34.093Z,101072.14
2019-04-26T22:19:21.491Z,101066.89
2019-04-26T22:22:11.818Z,101067.73
2019-04-26T22:24:41.475Z,101074.45
2019-04-26T22:27:11.171Z,101063.34
2019-04-26T22:29:41.282Z,101067.37
2019-04-26T22:32:15.423Z,101060.28
2019-04-26T22:34:46.193Z,101062.00
2019-04-26T22:37:18.899Z,101062.00
2019-04-26T22:39:45.579Z,101057.97
2019-04-26T22:42:15.588Z,101064.69
2019-04-26T22:44:54.089Z,101067.37
2019-04-26T22:47:40.676Z,101064.69
2019-04-26T22:50:05.306Z,101066.52
2019-04-26T22:52:34.862Z,101059.42
2019-04-26T22:55:04.925Z,101056.63
2019-04-26T22:57:34.469Z,101062.00
2019-04-26T23:00:04.272Z,101069.59
2019-04-26T23:02:33.866Z,101069.59
2019-04-26T23:05:05.721Z,101062.97
2019-04-26T23:07:34.723Z,101064.21
2019-04-26T23:10:06.112Z,101064.69
2019-04-26T23:12:50.856Z,101057.97
2019-04-26T23:15:43.294Z,101063.34
2019-04-26T23:18:30.904Z,101055.28
2019-04-26T23:21:07.686Z,101052.59
2019-04-26T23:23:37.142Z,101058.94
2019-04-26T23:26:07.718Z,101057.11
2019-04-26T23:28:37.281Z,101056.25
2019-04-26T23:31:08.288Z,101059.80
2019-04-26T23:33:38.247Z,101059.31
2019-04-26T23:36:07.880Z,101056.25
2019-04-26T23:38:37.761Z,101054.80
2019-04-26T23:41:07.550Z,101054.28
2019-04-26T23:43:37.249Z,101051.25
2019-04-26T23:46:06.765Z,101051.11
2019-04-26T23:48:36.256Z,101048.91
2019-04-26T23:51:08.378Z,101050.63
2019-04-26T23:53:37.026Z,101051.49
2019-04-26T23:56:06.503Z,101057.34
2019-04-26T23:58:36.070Z,101055.05
